Latest Conditions
At L.F.Wade Int. Airport
Recorded at 4:55 pm
Showers
Temp.: 
18°C/65°F
Humidity: 
77%
Wind: 
NE 26G37 KT
or 30G43 mph
UV Index: 
0
Island Observations
 
Observations
Thursday, January 23, 2020

Observations are in local time and taken at least once an hour, or upon the start and end of specified events such as showers and thunderstorms.

Time Sky / Weather Wind Speed/Gusts Temp. R.H. Pressure
     knots (mph)  °C (°F)  %  mb / "Hg
 16:55 Mostly Cloudy Showers NE 26/37 (30/43) 18(65) 77 1010 / 29.83
 16:39 Mostly Cloudy Showers ENE 27/37 (31/43) 18(64) 77 1010 / 29.82
 15:55 Mostly Cloudy Showers NE 24/39 (28/45) 18(65) 76 1010 / 29.82
 14:55 Mostly Cloudy Showers NE 24/35 (28/40) 18(64) 79 1010 / 29.82
 14:24 Overcast Showers ENE 21/0 (24/0) 18(65) 76 1010 / 29.83
 13:55 Overcast Rain NE 26/38 (30/44) 17(63) 79 1010 / 29.84
 13:13 Overcast Showers NE 24/38 (28/44) 18(64) 86 1011 / 29.85
 13:03 Overcast Showers NE 24/35 (28/40) 18(64) 86 1011 / 29.86
 12:55 Overcast Showers NE 21/35 (24/40) 18(65) 78 1011 / 29.86
 12:10 Overcast Showers ENE 22/0 (25/0) 18(65) 76 1012 / 29.88
 11:55 Overcast Showers ENE 27/40 (31/46) 19(66) 72 1012 / 29.89
 11:36 Overcast Showers ENE 29/0 (33/0) 19(65) 74 1012 / 29.89
 11:15 Overcast Showers ENE 26/0 (30/0) 18(65) 78 1013 / 29.90
 11:08 Overcast Showers NE 22/33 (25/38) 18(64) 86 1013 / 29.90
 11:01 Overcast Showers NE 21/33 (24/38) 18(65) 81 1013 / 29.90
 10:55 Overcast Showers NE 22/35 (25/40) 18(65) 82 1013 / 29.90
 10:46 Overcast Showers ENE 24/35 (28/40) 18(65) 82 1012 / 29.89
 09:55 Overcast Showers NE 22/0 (25/0) 18(64) 81 1012 / 29.89
 09:37 Overcast Showers NE 26/0 (30/0) 18(64) 81 1012 / 29.89
 09:08 Overcast Showers NE 22/33 (25/38) 18(64) 77 1012 / 29.88
 08:55 Overcast Showers NE 23/39 (26/45) 18(64) 83 1012 / 29.87
 08:44 Overcast Showers ENE 26/39 (30/45) 16(61) 93 1012 / 29.87
 08:29 Overcast Showers ENE 24/38 (28/44) 19(66) 64 1011 / 29.86
 08:07 Overcast Showers ENE 24/0 (28/0) 19(66) 64 1012 / 29.87
 07:55 Overcast Showers ENE 26/0 (30/0) 19(66) 64 1011 / 29.86
 07:21 Overcast Showers E 22/0 (25/0) 19(66) 67 1012 / 29.88
 06:55 Overcast Showers ENE 24/0 (28/0) 19(65) 68 1012 / 29.87
 05:55 Overcast Showers ENE 24/0 (28/0) 19(66) 67 1012 / 29.88
 04:55 Overcast Showers NE 21/35 (24/40) 19(65) 67 1012 / 29.87
 03:55 Overcast Showers NE 23/33 (26/38) 18(65) 67 1012 / 29.89
 02:55 Overcast Showers NE 22/0 (25/0) 18(65) 66 1013 / 29.90
 01:55 Overcast Showers NE 21/0 (24/0) 18(65) 61 1014 / 29.93
 00:55 Overcast  NE 19/0 (22/0) 18(64) 65 1015 / 29.97
 23:55 Overcast  NE 24/34 (28/39) 18(64) 65 1014 / 29.93
 22:55 Overcast  NE 21/0 (24/0) 18(64) 66 1015 / 29.98
 21:55 Overcast Showers NE 22/34 (25/39) 18(64) 66 1015 / 29.96
 20:55 Overcast  NE 21/31 (24/36) 18(64) 66 1015 / 29.98
 19:55 Overcast  NE 23/33 (26/38) 18(64) 69 1015 / 29.96
 18:55 Overcast Showers NE 25/37 (29/43) 18(64) 73 1014 / 29.94
 17:55 Overcast  NE 24/37 (28/43) 18(64) 73 1014 / 29.93
 17:15 Overcast Showers ENE 20/0 (23/0) 17(63) 76 1014 / 29.93
 17:02 Overcast Showers ENE 25/0 (29/0) 17(63) 76 1014 / 29.93
 16:55 Overcast Showers NE 21/35 (24/40) 18(64) 71 1014 / 29.94
 16:12 Mostly Cloudy Showers ENE 22/0 (25/0) 18(64) 71 1014 / 29.93
 15:55 Overcast  ENE 23/0 (26/0) 18(64) 73 1014 / 29.93
 15:22 Overcast  ENE 20/0 (23/0) 17(63) 79 1014 / 29.93
 15:03 Overcast  E 22/0 (25/0) 17(63) 79 1013 / 29.90
 14:55 Overcast Rain ENE 24/0 (28/0) 17(63) 83 1012 / 29.89
 13:55 Overcast Rain ENE 19/0 (22/0) 16(62) 88 1015 / 29.96
 13:08 Overcast Rain ENE 13/0 (15/0) 17(62) 83 1015 / 29.98
 12:55 Overcast Rain ENE 14/0 (16/0) 17(62) 83 1016 / 29.99
 12:36 Overcast Rain ENE 15/0 (17/0) 17(63) 80 1016 / 30.00
 12:04 Overcast Rain ENE 14/0 (16/0) 17(63) 81 1016 / 30.00
 11:55 Overcast Rain ENE 13/0 (15/0) 17(63) 83 1016 / 30.01
 10:55 Overcast Rain ENE 12/0 (14/0) 17(63) 73 1017 / 30.02
 10:41 Overcast Rain ENE 11/0 (13/0) 18(64) 70 1016 / 30.01
 09:55 Overcast  NE 12/0 (14/0) 18(64) 63 1016 / 30.01
 08:55 Overcast  NE 8/0 (9/0) 18(64) 64 1017 / 30.02
 07:55 Overcast  NE 7/0 (8/0) 17(63) 65 1016 / 30.00
 06:55 Mostly Cloudy  N 8/0 (9/0) 17(63) 66 1015 / 29.97
 05:55 Mostly Cloudy  N 10/0 (12/0) 17(63) 65 1015 / 29.98
 04:55 Overcast  NE 5/0 (6/0) 16(61) 64 1015 / 29.97
 03:55 Overcast  WNW 5/0 (6/0) 16(60) 78 1016 / 30.01
 02:55 Overcast  W 4/0 (5/0) 16(60) 68 1016 / 30.01
 01:55 Mostly Cloudy  SW 4/0 (5/0) 15(60) 70 1016 / 30.01
 00:55 Mostly Cloudy  Calm 16(60) 63 1016 / 30.00
 23:55 Mostly Cloudy  NW 4/0 (5/0) 16(62) 59 1017 / 30.02
 22:55 Mostly Cloudy  NW 5/0 (6/0) 17(62) 58 1017 / 30.02
 21:55 Mostly Cloudy  NW 7/0 (8/0) 17(62) 57 1017 / 30.02
 20:55 Mostly Cloudy  WNW 5/0 (6/0) 17(63) 54 1017 / 30.02
 19:55 Mostly Cloudy  NW 8/0 (9/0) 17(63) 54 1017 / 30.02
 18:55 Mostly Cloudy  WNW 7/0 (8/0) 17(63) 55 1017 / 30.02
 17:55 Mostly Cloudy  WNW 10/0 (12/0) 17(62) 55 1016 / 30.00
 16:55 Mostly Cloudy  NW 9/0 (10/0) 17(63) 56 1016 / 29.99
 15:55 Mostly Cloudy  NW 8/0 (9/0) 18(64) 55 1016 / 29.99
 14:55 Mostly Cloudy  WNW 11/0 (13/0) 18(64) 54 1016 / 29.99
 13:55 Mostly Cloudy  NW 11/0 (13/0) 18(65) 55 1016 / 29.99
 12:55 Mostly Cloudy  NW 11/0 (13/0) 18(65) 53 1016 / 30.01
 11:55 Partly Cloudy  NW 9/0 (10/0) 19(65) 53 1017 / 30.04
 10:55 Partly Cloudy  NNW 5/0 (6/0) 18(65) 55 1018 / 30.05
 09:55 Mostly Cloudy  NNW 4/0 (5/0) 17(63) 59 1018 / 30.05
 08:55 Mostly Cloudy Showers NNW 6/0 (7/0) 17(62) 59 1017 / 30.04
 07:55 Overcast  N 6/0 (7/0) 17(62) 60 1016 / 30.01
 06:55 Overcast Showers NNE 6/0 (7/0) 17(62) 61 1016 / 29.99
 05:55 Overcast Showers NNE 7/0 (8/0) 16(61) 66 1016 / 29.99
 05:22 Overcast Showers NE 7/0 (8/0) 16(60) 72 1016 / 29.99
 05:00 Overcast Showers NNE 7/0 (8/0) 16(61) 70 1015 / 29.98
 04:55 Overcast Showers N 8/0 (9/0) 16(61) 67 1015 / 29.98
 04:35 Overcast Showers NNE 9/0 (10/0) 16(62) 66 1015 / 29.97
 04:21 Overcast Showers NE 8/0 (9/0) 17(62) 65 1015 / 29.97
 04:07 Overcast Showers NE 8/0 (9/0) 17(62) 65 1015 / 29.98
 03:55 Overcast Showers N 7/0 (8/0) 17(62) 63 1015 / 29.98
 03:30 Overcast Showers N 6/0 (7/0) 17(63) 61 1016 / 29.99
 02:55 Overcast  N 9/0 (10/0) 17(63) 65 1015 / 29.97
 01:55 Overcast  N 9/0 (10/0) 17(63) 64 1016 / 29.99
 00:55 Overcast  NNW 8/0 (9/0) 17(63) 63 1016 / 30.00
 00:16 Overcast  N 8/0 (9/0) 17(62) 68 1016 / 30.01
 23:55 Overcast Rain N 9/0 (10/0) 17(63) 70 1017 / 30.02
 22:55 Overcast Rain N 10/0 (12/0) 16(62) 78 1017 / 30.02
 21:55 Overcast Rain N 9/0 (10/0) 17(63) 71 1017 / 30.02
Island AWOS